Time;durP1;ratioP1;P1;durP2;ratioP2;P2;SDS_P1;SDS_P2;PMS_P1;PMS_P2;Temp;Humidity;BMP_temperature;BMP_pressure;BME280_temperature;BME280_humidity;BME280_pressure;Samples;Min_cycle;Max_cycle;Signal;HPM_P1;HPM_P2
2023/01/07 00:01:03;;;;;;;0.43;0.43;;;1.60;99.90;0.90;100287;;;;569029;250;24099;-80
2023/01/07 00:03:31;;;;;;;0.10;0.10;;;1.70;99.90;1.00;100292;;;;561840;251;24136;-81
2023/01/07 00:06:02;;;;;;;2.73;0.70;;;1.90;99.90;1.00;100288;;;;565155;251;24121;-81
2023/01/07 00:08:30;;;;;;;0.80;0.60;;;1.90;99.90;1.00;100281;;;;572627;247;24100;-80
2023/01/07 00:11:01;;;;;;;0.47;0.47;;;1.90;99.90;1.20;100285;;;;564880;250;24096;-79
2023/01/07 00:13:29;;;;;;;1.37;0.97;;;2.00;99.90;1.30;100290;;;;564167;251;24137;-80
2023/01/07 00:15:59;;;;;;;0.20;0.20;;;2.20;99.90;1.30;100291;;;;564840;251;24099;-80
2023/01/07 00:18:30;;;;;;;0.33;0.33;;;2.20;99.90;1.30;100286;;;;564173;251;24162;-80
2023/01/07 00:20:59;;;;;;;0.10;0.10;;;2.30;99.90;1.40;100290;;;;564545;250;25140;-79
2023/01/07 00:23:27;;;;;;;0.30;0.30;;;2.30;99.90;1.50;100296;;;;570812;251;24155;-80
2023/01/07 00:26:01;;;;;;;0.20;0.20;;;2.40;99.90;1.50;100294;;;;566969;251;24093;-81
2023/01/07 00:28:29;;;;;;;0.00;0.00;;;2.40;99.90;1.60;100308;;;;572610;247;24074;-78
2023/01/07 00:31:03;;;;;;;0.10;0.10;;;2.50;99.90;1.60;100299;;;;574026;250;24108;-79
2023/01/07 00:33:33;;;;;;;0.20;0.20;;;2.50;99.90;1.70;100298;;;;567076;250;24106;-80
2023/01/07 00:36:06;;;;;;;0.07;0.07;;;2.60;99.90;1.70;100301;;;;567893;251;24164;-80
2023/01/07 00:38:32;;;;;;;0.53;0.23;;;2.60;99.90;1.70;100306;;;;572683;247;24054;-79
2023/01/07 00:41:03;;;;;;;1.00;0.90;;;2.70;99.90;1.70;100310;;;;564445;251;35099;-81
2023/01/07 00:43:29;;;;;;;0.30;0.30;;;2.60;99.90;1.70;100303;;;;580687;247;24105;-80
2023/01/07 00:45:57;;;;;;;0.47;0.33;;;2.60;99.90;1.70;100309;;;;569435;251;24082;-77
2023/01/07 00:48:25;;;;;;;0.33;0.33;;;2.70;99.90;1.70;100304;;;;561980;250;24195;-77
2023/01/07 00:50:53;;;;;;;0.30;0.30;;;2.70;99.90;1.80;100311;;;;565568;253;24082;-79
2023/01/07 00:53:21;;;;;;;0.10;0.10;;;2.70;99.90;1.90;100318;;;;572535;247;24055;-78
2023/01/07 00:55:51;;;;;;;0.67;0.40;;;2.80;99.90;2.00;100321;;;;562284;251;24143;-78
2023/01/07 00:58:19;;;;;;;0.20;0.20;;;2.90;99.90;2.10;100318;;;;564029;250;24136;-79
2023/01/07 01:00:47;;;;;;;0.50;0.40;;;2.90;99.90;2.10;100324;;;;564577;250;24113;-81
2023/01/07 01:03:15;;;;;;;0.20;0.20;;;3.00;99.90;2.10;100324;;;;573177;249;24075;-81
2023/01/07 01:05:44;;;;;;;0.20;0.20;;;3.00;99.90;2.10;100317;;;;560069;251;24097;-81
2023/01/07 01:08:12;;;;;;;0.10;0.10;;;3.00;99.90;2.10;100320;;;;569214;252;24064;-80
2023/01/07 01:10:43;;;;;;;0.90;0.30;;;3.00;99.90;2.20;100330;;;;581390;247;24085;-80
2023/01/07 01:13:08;;;;;;;0.57;0.30;;;3.00;99.90;2.20;100333;;;;564263;250;24101;-77
2023/01/07 01:15:36;;;;;;;0.40;0.23;;;3.10;99.90;2.30;100324;;;;564569;251;24105;-78
2023/01/07 01:18:04;;;;;;;0.30;0.30;;;3.10;99.90;2.30;100315;;;;565821;253;24085;-78
2023/01/07 01:20:31;;;;;;;0.73;0.70;;;3.10;99.90;2.20;100322;;;;581377;247;24069;-80
2023/01/07 01:23:02;;;;;;;0.93;0.73;;;3.10;99.90;2.10;100317;;;;561995;252;24084;-80
2023/01/07 01:25:27;;;;;;;0.20;0.20;;;3.00;99.90;2.00;100314;;;;564370;250;24128;-79
2023/01/07 01:27:55;;;;;;;0.77;0.50;;;2.90;99.90;1.90;100320;;;;559630;251;24161;-78
2023/01/07 01:30:23;;;;;;;0.40;0.40;;;2.80;99.90;1.90;100323;;;;559873;251;24244;-79
2023/01/07 01:32:52;;;;;;;0.50;0.50;;;2.70;99.90;2.00;100335;;;;571219;250;24095;-81
2023/01/07 01:35:19;;;;;;;1.70;0.80;;;2.80;99.90;2.10;100337;;;;570658;251;24095;-78
2023/01/07 01:37:47;;;;;;;1.27;1.17;;;2.90;99.90;2.20;100330;;;;560409;251;24088;-77
2023/01/07 01:40:15;;;;;;;0.60;0.60;;;2.90;99.90;2.20;100335;;;;560354;251;24092;-78
2023/01/07 01:42:43;;;;;;;1.00;0.97;;;3.00;99.90;2.30;100342;;;;560149;251;24115;-77
2023/01/07 01:45:11;;;;;;;0.50;0.50;;;3.10;99.90;2.30;100347;;;;559939;251;24113;-80
2023/01/07 01:47:53;;;;;;;3.27;1.40;;;3.10;99.90;2.30;100340;;;;570544;251;25128;-82
2023/01/07 01:50:33;;;;;;;1.20;1.10;;;3.10;99.90;2.20;100340;;;;568550;250;24117;-77
2023/01/07 01:53:07;;;;;;;0.43;0.43;;;3.00;99.90;2.20;100342;;;;573034;250;24091;-79
2023/01/07 01:55:37;;;;;;;4.43;1.23;;;3.00;99.90;2.10;100348;;;;568438;250;24111;-78
2023/01/07 01:58:10;;;;;;;2.57;1.17;;;2.90;99.90;2.00;100348;;;;573012;247;24113;-78
2023/01/07 02:00:39;;;;;;;0.47;0.47;;;2.80;99.90;2.10;100353;;;;565483;251;24169;-82
2023/01/07 02:03:08;;;;;;;4.27;1.67;;;2.80;99.90;2.00;100361;;;;559158;251;24091;-78
2023/01/07 02:05:36;;;;;;;0.80;0.63;;;2.70;99.90;2.00;100346;;;;565027;250;24112;-82
2023/01/07 02:08:04;;;;;;;0.73;0.70;;;2.70;99.90;1.90;100352;;;;564999;250;24096;-81
2023/01/07 02:10:32;;;;;;;1.10;1.00;;;2.70;99.90;1.90;100350;;;;573209;250;24169;-81
2023/01/07 02:13:32;;;;;;;1.73;0.80;;;2.60;99.90;1.80;100359;;;;568971;250;24057;-80
2023/01/07 02:16:18;;;;;;;0.90;0.90;;;2.60;99.90;1.90;100357;;;;572499;248;24086;-81
2023/01/07 02:18:55;;;;;;;1.30;1.23;;;2.60;99.90;1.90;100355;;;;563579;251;24115;-80
2023/01/07 02:21:41;;;;;;;6.50;0.93;;;2.70;99.90;2.00;100356;;;;564778;250;24080;-80
2023/01/07 02:24:23;;;;;;;1.07;1.00;;;2.70;99.90;2.10;100352;;;;564252;251;24132;-80
2023/01/07 02:27:21;;;;;;;8.17;1.63;;;2.80;99.90;2.20;100353;;;;572607;247;24100;-79
2023/01/07 02:30:25;;;;;;;5.13;1.77;;;2.90;99.90;2.20;100357;;;;576783;245;24095;-79
2023/01/07 02:33:05;;;;;;;2.77;1.57;;;2.90;99.90;2.10;100345;;;;572286;248;24085;-81
2023/01/07 02:35:50;;;;;;;3.00;2.00;;;2.90;99.90;2.10;100342;;;;569868;250;24099;-78
2023/01/07 02:38:18;;;;;;;3.23;1.57;;;2.90;99.90;2.10;100346;;;;564737;251;24103;-78
2023/01/07 02:40:57;;;;;;;6.12;2.60;;;2.90;99.90;2.20;100336;;;;555750;253;35204;-78
2023/01/07 02:44:02;;;;;;;3.10;2.70;;;2.90;99.90;2.20;100342;;;;562163;250;24096;-79
2023/01/07 02:46:47;;;;;;;10.67;2.27;;;2.90;99.90;2.20;100348;;;;566410;251;24091;-79
2023/01/07 02:49:15;;;;;;;9.03;1.67;;;2.90;99.90;2.20;100345;;;;565322;250;24113;-78
2023/01/07 02:51:43;;;;;;;5.17;1.27;;;2.90;99.90;2.10;100339;;;;562874;251;24178;-78
2023/01/07 02:54:11;;;;;;;4.60;2.17;;;2.80;99.90;2.00;100353;;;;560175;250;24090;-77
2023/01/07 02:56:53;;;;;;;3.93;1.80;;;2.70;99.90;1.90;100346;;;;573096;247;24161;-81
2023/01/07 02:59:51;;;;;;;7.63;1.80;;;2.70;99.90;1.90;100353;;;;563742;251;24096;-77
2023/01/07 03:02:24;;;;;;;5.77;1.80;;;2.60;99.90;2.00;100362;;;;576770;247;24086;-78
2023/01/07 03:05:07;;;;;;;5.90;2.10;;;2.70;99.90;2.10;100358;;;;569395;251;24110;-77
2023/01/07 03:07:35;;;;;;;5.73;2.53;;;2.80;99.90;2.20;100364;;;;558392;249;24103;-77
2023/01/07 03:10:08;;;;;;;4.73;2.27;;;2.90;99.90;2.30;100360;;;;577611;245;24087;-78
2023/01/07 03:12:42;;;;;;;9.50;2.83;;;3.00;99.90;2.40;100368;;;;566715;250;24107;-79
2023/01/07 03:15:25;;;;;;;11.87;1.97;;;3.10;99.90;2.50;100371;;;;580006;247;24095;-78
2023/01/07 03:17:56;;;;;;;4.13;2.07;;;3.10;99.90;2.50;100375;;;;564797;250;24132;-80
2023/01/07 03:20:26;;;;;;;5.43;2.00;;;3.20;99.90;2.60;100375;;;;564643;251;24104;-82
2023/01/07 03:22:52;;;;;;;5.23;2.33;;;3.30;99.90;2.60;100378;;;;561285;252;24122;-83
2023/01/07 03:25:19;;;;;;;6.77;2.20;;;3.30;99.90;2.70;100390;;;;561396;251;24099;-77
2023/01/07 03:27:50;;;;;;;3.93;1.63;;;3.40;99.90;2.70;100382;;;;561278;252;24109;-82
2023/01/07 03:30:18;;;;;;;11.97;2.43;;;3.40;99.90;2.80;100384;;;;571639;248;24098;-82
2023/01/07 03:32:49;;;;;;;3.90;2.43;;;3.40;99.90;2.80;100399;;;;571847;248;24080;-78
2023/01/07 03:35:16;;;;;;;4.03;2.20;;;3.50;99.90;2.80;100397;;;;564085;251;24091;-77
2023/01/07 03:37:45;;;;;;;11.20;4.18;;;3.50;99.90;2.80;100403;;;;563014;251;35273;-77
2023/01/07 03:40:13;;;;;;;9.87;3.67;;;3.50;99.90;2.90;100396;;;;568376;250;24114;-80
2023/01/07 03:42:41;;;;;;;8.63;2.90;;;3.50;99.90;2.90;100403;;;;564708;250;24124;-79
2023/01/07 03:45:20;;;;;;;5.87;2.07;;;3.60;99.90;3.00;100393;;;;567471;251;24094;-78
2023/01/07 03:47:48;;;;;;;9.20;2.20;;;3.60;99.90;3.00;100399;;;;564650;251;24100;-78
2023/01/07 03:50:16;;;;;;;3.80;2.03;;;3.70;99.90;3.00;100393;;;;564788;251;24115;-78
2023/01/07 03:52:47;;;;;;;9.60;2.60;;;3.70;99.90;3.10;100393;;;;559083;250;24090;-77
2023/01/07 03:55:12;;;;;;;6.83;2.60;;;3.70;99.90;3.10;100404;;;;570393;250;24111;-78
2023/01/07 03:57:40;;;;;;;3.03;2.47;;;3.70;99.90;3.10;100396;;;;566034;251;24104;-77
2023/01/07 04:00:08;;;;;;;3.00;1.97;;;3.70;99.90;3.00;100401;;;;560161;251;24156;-80
2023/01/07 04:02:36;;;;;;;2.70;2.40;;;3.70;99.90;3.00;100409;;;;565517;250;24112;-78
2023/01/07 04:05:08;;;;;;;4.23;2.10;;;3.70;99.90;3.00;100404;;;;565333;251;25162;-78
2023/01/07 04:07:32;;;;;;;4.07;1.80;;;3.70;99.90;3.00;100401;;;;559653;248;25197;-79
2023/01/07 04:10:01;;;;;;;2.13;1.80;;;3.60;99.90;2.90;100406;;;;559695;251;24101;-78
2023/01/07 04:12:29;;;;;;;4.40;2.43;;;3.60;99.90;2.90;100410;;;;560069;251;24091;-79
2023/01/07 04:14:57;;;;;;;4.70;2.77;;;3.60;99.90;2.90;100408;;;;566078;253;24150;-79
2023/01/07 04:17:25;;;;;;;4.77;2.20;;;3.60;99.90;2.80;100411;;;;581593;247;24060;-79
2023/01/07 04:19:53;;;;;;;2.97;2.33;;;3.50;99.90;2.70;100415;;;;562628;250;24162;-79
2023/01/07 04:22:21;;;;;;;10.73;3.03;;;3.40;99.90;2.70;100416;;;;559667;251;24098;-78
2023/01/07 04:24:49;;;;;;;4.07;1.93;;;3.40;99.90;2.70;100418;;;;559358;251;24129;-81
2023/01/07 04:27:16;;;;;;;8.00;2.73;;;3.30;99.90;2.60;100411;;;;559645;251;24100;-79
2023/01/07 04:29:44;;;;;;;6.57;2.37;;;3.30;99.90;2.60;100408;;;;559831;251;24115;-79
2023/01/07 04:32:12;;;;;;;7.03;3.33;;;3.30;99.90;2.50;100410;;;;559591;251;24088;-79
2023/01/07 04:34:40;;;;;;;3.90;2.60;;;3.20;99.90;2.50;100417;;;;559631;250;24106;-79
2023/01/07 04:37:08;;;;;;;9.77;4.20;;;3.20;99.90;2.60;100419;;;;564869;252;35243;-81
2023/01/07 04:39:36;;;;;;;5.30;3.23;;;3.20;99.90;2.60;100416;;;;569668;251;24084;-79
2023/01/07 04:42:05;;;;;;;9.30;2.30;;;3.30;99.90;2.60;100410;;;;559593;251;24085;-79
2023/01/07 04:44:32;;;;;;;7.23;2.43;;;3.30;99.90;2.60;100414;;;;558992;251;24088;-78
2023/01/07 04:47:00;;;;;;;5.67;3.00;;;3.30;99.90;2.70;100408;;;;573689;250;24113;-80
2023/01/07 04:49:28;;;;;;;2.93;2.60;;;3.30;99.90;2.70;100405;;;;559600;251;24087;-80
2023/01/07 04:51:56;;;;;;;10.80;3.00;;;3.40;99.90;2.70;100412;;;;559772;251;24089;-81
2023/01/07 04:54:24;;;;;;;7.40;2.83;;;3.30;99.90;2.70;100409;;;;558091;253;24075;-80
2023/01/07 04:56:52;;;;;;;7.13;3.30;;;3.40;99.90;2.70;100408;;;;581421;247;25206;-79
2023/01/07 04:59:20;;;;;;;5.60;3.40;;;3.40;99.90;2.70;100403;;;;562429;251;24099;-79
2023/01/07 05:01:48;;;;;;;7.97;3.00;;;3.40;99.90;2.70;100414;;;;560339;251;24109;-80
2023/01/07 05:04:16;;;;;;;6.57;3.13;;;3.30;99.90;2.60;100415;;;;561963;251;24079;-80
2023/01/07 05:06:44;;;;;;;5.37;3.00;;;3.30;99.90;2.70;100417;;;;569861;249;24105;-80
2023/01/07 05:09:12;;;;;;;6.13;3.10;;;3.30;99.90;2.70;100421;;;;560062;251;24121;-80
2023/01/07 05:11:43;;;;;;;6.60;3.70;;;3.30;99.90;2.70;100412;;;;559884;251;24099;-81
2023/01/07 05:14:11;;;;;;;3.93;3.30;;;3.40;99.90;2.80;100419;;;;562252;252;24089;-81
2023/01/07 05:16:39;;;;;;;9.60;3.37;;;3.40;99.90;2.80;100418;;;;567945;251;24177;-83
2023/01/07 05:19:07;;;;;;;8.07;3.20;;;3.40;99.90;2.70;100420;;;;560143;251;24083;-79
2023/01/07 05:21:35;;;;;;;6.97;3.33;;;3.40;99.90;2.70;100421;;;;565049;251;24083;-79
2023/01/07 05:24:03;;;;;;;7.40;3.80;;;3.40;99.90;2.80;100427;;;;570977;251;24118;-79
2023/01/07 05:26:31;;;;;;;5.93;3.70;;;3.40;99.90;2.80;100425;;;;562240;251;24093;-82
2023/01/07 05:28:59;;;;;;;6.97;3.47;;;3.40;99.90;2.80;100433;;;;559811;251;24099;-81
2023/01/07 05:31:27;;;;;;;6.10;3.53;;;3.40;99.90;2.80;100428;;;;559226;251;24115;-81
2023/01/07 05:33:55;;;;;;;6.53;3.40;;;3.40;99.90;2.80;100431;;;;559875;251;24109;-82
2023/01/07 05:36:23;;;;;;;6.40;2.97;;;3.40;99.90;2.80;100430;;;;559890;251;24146;-81
2023/01/07 05:38:51;;;;;;;4.87;3.47;;;3.40;99.90;2.80;100441;;;;560007;251;24083;-81
2023/01/07 05:41:20;;;;;;;9.47;3.47;;;3.40;99.90;2.70;100435;;;;559663;251;24146;-82
2023/01/07 05:43:48;;;;;;;6.17;2.83;;;3.40;99.90;2.70;100433;;;;570037;252;24096;-81
2023/01/07 05:46:16;;;;;;;5.00;2.40;;;3.30;99.90;2.60;100441;;;;569548;251;24214;-81
2023/01/07 05:48:43;;;;;;;4.87;2.70;;;3.30;99.90;2.60;100435;;;;560197;251;24120;-80
2023/01/07 05:51:11;;;;;;;7.37;2.50;;;3.20;99.90;2.50;100427;;;;561978;252;24080;-82
2023/01/07 05:53:39;;;;;;;5.00;2.93;;;3.20;99.90;2.40;100434;;;;569606;251;24143;-80
2023/01/07 05:56:07;;;;;;;5.67;3.47;;;3.10;99.90;2.30;100435;;;;559407;251;24080;-79
2023/01/07 05:58:35;;;;;;;4.83;3.57;;;3.00;99.90;2.30;100436;;;;561551;250;24106;-78
2023/01/07 06:01:03;;;;;;;5.33;3.37;;;2.90;99.90;2.20;100430;;;;565845;253;24125;-79
2023/01/07 06:03:31;;;;;;;8.53;3.67;;;2.80;99.90;2.10;100430;;;;581399;247;24089;-81
2023/01/07 06:06:05;;;;;;;7.10;3.77;;;2.80;99.90;2.10;100433;;;;561897;251;24083;-80
2023/01/07 06:08:27;;;;;;;4.73;2.80;;;2.80;99.90;2.10;100431;;;;560548;252;24119;-80
2023/01/07 06:10:55;;;;;;;3.80;2.90;;;2.80;99.90;2.10;100437;;;;569128;251;24109;-79
2023/01/07 06:13:23;;;;;;;9.03;3.80;;;2.70;99.90;2.00;100444;;;;559693;251;24104;-79
2023/01/07 06:15:52;;;;;;;10.97;3.53;;;2.60;99.90;2.00;100440;;;;565367;253;24099;-78
2023/01/07 06:18:20;;;;;;;6.37;3.37;;;2.60;99.90;2.00;100441;;;;581341;245;24113;-77
2023/01/07 06:20:48;;;;;;;7.27;3.63;;;2.70;99.90;2.00;100460;;;;562888;250;24093;-81
2023/01/07 06:23:16;;;;;;;9.93;3.17;;;2.60;99.90;2.00;100456;;;;566484;252;24082;-80
2023/01/07 06:25:44;;;;;;;7.03;2.80;;;2.70;99.90;2.10;100469;;;;581819;247;24079;-80
2023/01/07 06:28:11;;;;;;;6.27;2.80;;;2.70;99.90;2.10;100460;;;;562828;250;24084;-80
2023/01/07 06:30:39;;;;;;;6.57;2.57;;;2.80;99.90;2.20;100463;;;;559553;251;24071;-79
2023/01/07 06:33:07;;;;;;;3.53;2.43;;;2.80;99.90;2.20;100467;;;;560238;251;24099;-79
2023/01/07 06:35:35;;;;;;;4.23;2.93;;;2.90;99.90;2.20;100467;;;;562163;252;24088;-79
2023/01/07 06:38:03;;;;;;;6.60;2.37;;;2.90;99.90;2.20;100467;;;;568994;251;24119;-80
2023/01/07 06:40:31;;;;;;;3.20;2.23;;;2.90;99.90;2.20;100468;;;;560279;250;24130;-80
2023/01/07 06:42:59;;;;;;;10.10;2.53;;;2.80;99.90;2.10;100468;;;;573067;250;24088;-79
2023/01/07 06:45:27;;;;;;;2.63;2.00;;;2.80;99.90;2.10;100471;;;;569093;252;24066;-79
2023/01/07 06:47:57;;;;;;;2.93;2.53;;;2.60;99.90;2.00;100476;;;;581385;247;24142;-80
2023/01/07 06:50:23;;;;;;;6.23;2.93;;;2.70;99.90;1.90;100462;;;;572308;247;24056;-79
2023/01/07 06:52:52;;;;;;;7.57;3.57;;;2.50;99.90;1.80;100474;;;;569557;251;24117;-80
2023/01/07 06:55:20;;;;;;;16.67;5.10;;;2.50;99.90;1.70;100482;;;;559055;251;24083;-80
2023/01/07 06:57:48;;;;;;;18.97;7.57;;;2.40;99.90;1.70;100485;;;;564656;251;24120;-81
2023/01/07 07:00:20;;;;;;;26.60;11.53;;;2.30;99.90;1.60;100485;;;;559146;251;24088;-81
2023/01/07 07:02:44;;;;;;;30.33;12.87;;;2.30;99.90;1.50;100482;;;;563816;251;24108;-81
2023/01/07 07:05:11;;;;;;;33.73;10.43;;;2.20;99.90;1.40;100480;;;;568900;251;24102;-79
2023/01/07 07:07:40;;;;;;;24.43;8.27;;;2.10;99.90;1.40;100484;;;;569284;249;24098;-79
2023/01/07 07:10:08;;;;;;;13.23;5.57;;;2.00;99.90;1.40;100477;;;;559331;251;24078;-81
2023/01/07 07:12:36;;;;;;;10.90;5.00;;;2.00;99.90;1.30;100480;;;;569486;251;24096;-80
2023/01/07 07:15:08;;;;;;;21.10;5.70;;;2.00;99.90;1.30;100475;;;;571644;247;24054;-78
2023/01/07 07:17:33;;;;;;;12.77;5.28;;;2.00;99.90;1.30;100477;;;;564393;247;35123;-80
2023/01/07 07:20:01;;;;;;;11.97;4.23;;;2.00;99.90;1.30;100474;;;;569213;251;24177;-78
2023/01/07 07:22:29;;;;;;;13.60;3.90;;;2.00;99.90;1.40;100476;;;;558592;251;24110;-80
2023/01/07 07:24:57;;;;;;;14.07;4.57;;;2.00;99.90;1.40;100484;;;;558932;251;24119;-80
2023/01/07 07:27:25;;;;;;;15.13;6.03;;;2.00;99.90;1.40;100487;;;;559608;251;24080;-79
2023/01/07 07:29:54;;;;;;;8.40;5.13;;;2.10;99.90;1.40;100497;;;;559449;249;24077;-80
2023/01/07 07:32:27;;;;;;;14.60;6.07;;;2.10;99.90;1.50;100493;;;;561028;251;24090;-81
2023/01/07 07:34:49;;;;;;;12.30;5.63;;;2.10;99.90;1.50;100495;;;;562385;252;24094;-81
2023/01/07 07:37:17;;;;;;;9.07;4.83;;;2.10;99.90;1.60;100499;;;;569987;251;24087;-80
2023/01/07 07:39:46;;;;;;;11.37;4.70;;;2.30;99.90;1.60;100503;;;;560673;251;24108;-80
2023/01/07 07:42:14;;;;;;;10.10;4.67;;;2.20;99.90;1.70;100507;;;;569445;252;24076;-81
2023/01/07 07:44:42;;;;;;;9.30;4.20;;;2.30;99.90;1.80;100509;;;;581458;247;24061;-80
2023/01/07 07:47:10;;;;;;;7.77;3.87;;;2.40;99.90;1.90;100501;;;;565358;251;24083;-80
2023/01/07 07:49:38;;;;;;;7.10;3.97;;;2.50;99.90;2.00;100509;;;;566291;251;24131;-81
2023/01/07 07:52:06;;;;;;;9.77;4.73;;;2.60;99.90;2.10;100509;;;;565736;253;24079;-81
2023/01/07 07:54:34;;;;;;;8.87;3.20;;;2.70;99.90;2.20;100501;;;;581482;247;24083;-79
2023/01/07 07:57:02;;;;;;;5.43;2.83;;;2.80;99.90;2.30;100502;;;;562093;250;24090;-80
2023/01/07 07:59:29;;;;;;;10.77;3.20;;;2.90;99.90;2.40;100508;;;;569352;252;24079;-79
2023/01/07 08:01:57;;;;;;;6.13;2.40;;;3.00;99.90;2.50;100515;;;;576215;247;24071;-80
2023/01/07 08:04:32;;;;;;;7.57;2.50;;;3.20;99.90;2.60;100515;;;;569578;251;24092;-80
2023/01/07 08:06:54;;;;;;;7.57;2.60;;;3.20;99.90;2.60;100522;;;;558108;251;24156;-80
2023/01/07 08:09:22;;;;;;;8.23;2.30;;;3.20;99.90;2.70;100520;;;;559270;251;24098;-79
2023/01/07 08:11:50;;;;;;;3.40;2.20;;;3.30;99.90;2.70;100519;;;;561626;252;24103;-79
2023/01/07 08:14:17;;;;;;;5.73;2.90;;;3.30;99.90;2.80;100518;;;;569123;251;24097;-79
2023/01/07 08:16:45;;;;;;;8.77;3.07;;;3.40;99.90;2.80;100527;;;;559475;251;24080;-80
2023/01/07 08:19:14;;;;;;;13.23;5.15;;;3.40;99.90;2.80;100521;;;;555284;251;35360;-79
2023/01/07 08:21:42;;;;;;;5.80;3.67;;;3.40;99.90;2.80;100517;;;;569381;252;24119;-78
2023/01/07 08:24:10;;;;;;;3.80;2.30;;;3.40;99.90;2.80;100520;;;;581445;247;24089;-79
2023/01/07 08:26:38;;;;;;;9.33;3.13;;;3.40;99.90;2.80;100514;;;;561401;251;24094;-78
2023/01/07 08:29:06;;;;;;;8.43;2.17;;;3.40;99.90;2.80;100514;;;;561972;252;24110;-78
2023/01/07 08:31:34;;;;;;;11.13;2.40;;;3.40;99.90;2.80;100523;;;;569635;251;24092;-78
2023/01/07 08:34:01;;;;;;;2.93;1.70;;;3.40;99.90;2.80;100521;;;;559399;251;24088;-81
2023/01/07 08:36:29;;;;;;;7.47;2.27;;;3.40;99.90;2.80;100517;;;;559932;251;24073;-81
2023/01/07 08:38:57;;;;;;;4.57;2.03;;;3.40;99.90;2.70;100515;;;;562005;251;24150;-81
2023/01/07 08:41:25;;;;;;;7.50;2.97;;;3.40;99.90;2.70;100511;;;;569806;249;24131;-79
2023/01/07 08:43:53;;;;;;;5.77;2.73;;;3.40;99.90;2.70;100518;;;;566496;250;24098;-81
2023/01/07 08:46:21;;;;;;;3.73;2.43;;;3.40;99.90;2.70;100523;;;;560489;251;24087;-78
2023/01/07 08:48:49;;;;;;;3.33;2.30;;;3.30;99.90;2.70;100531;;;;565406;250;24098;-77
2023/01/07 08:51:17;;;;;;;7.53;2.53;;;3.40;99.90;2.70;100537;;;;574293;250;24095;-78
2023/01/07 08:53:45;;;;;;;4.77;2.37;;;3.30;99.90;2.80;100531;;;;565755;251;24088;-79
2023/01/07 08:56:13;;;;;;;8.10;2.57;;;3.40;99.90;2.80;100530;;;;560649;250;24079;-80
2023/01/07 08:58:41;;;;;;;7.93;2.70;;;3.40;99.90;2.90;100535;;;;569679;252;25320;-81
2023/01/07 09:01:08;;;;;;;3.80;2.53;;;3.40;99.90;2.90;100541;;;;581750;247;24063;-80
2023/01/07 09:03:36;;;;;;;6.97;2.37;;;3.50;99.90;2.90;100538;;;;566596;251;24142;-80
2023/01/07 09:06:07;;;;;;;7.37;2.67;;;3.50;99.90;2.90;100535;;;;562352;251;24103;-79
2023/01/07 09:08:32;;;;;;;13.73;3.03;;;3.60;99.90;2.90;100523;;;;580668;243;24082;-80
2023/01/07 09:11:00;;;;;;;9.10;2.67;;;3.50;99.90;2.90;100529;;;;569524;251;24072;-79
2023/01/07 09:13:29;;;;;;;2.97;2.67;;;3.50;99.90;2.90;100534;;;;560176;251;24080;-81
2023/01/07 09:15:58;;;;;;;5.57;2.50;;;3.50;99.90;2.90;100528;;;;570136;251;24121;-81
2023/01/07 09:18:25;;;;;;;8.67;3.53;;;3.50;99.90;2.90;100531;;;;569639;251;24103;-79
2023/01/07 09:20:53;;;;;;;3.77;2.90;;;3.50;99.90;2.90;100548;;;;560153;251;24168;-79
2023/01/07 09:23:21;;;;;;;8.20;4.13;;;3.50;99.90;3.00;100547;;;;561396;251;24124;-79
2023/01/07 09:25:49;;;;;;;11.37;4.53;;;3.60;99.90;3.10;100546;;;;569133;251;24239;-82
2023/01/07 09:28:17;;;;;;;4.00;3.17;;;3.70;99.90;3.20;100562;;;;559563;251;24088;-81
2023/01/07 09:30:45;;;;;;;10.30;2.83;;;3.80;99.90;3.40;100560;;;;559598;251;24088;-79
2023/01/07 09:33:13;;;;;;;9.83;3.57;;;3.90;99.90;3.50;100561;;;;573671;250;24098;-82
2023/01/07 09:35:41;;;;;;;11.10;4.47;;;4.10;99.90;3.60;100559;;;;559901;251;24079;-81
2023/01/07 09:38:09;;;;;;;9.07;4.00;;;4.30;99.90;3.80;100556;;;;562025;252;24110;-80
2023/01/07 09:40:41;;;;;;;11.37;4.07;;;4.30;99.90;4.00;100554;;;;569584;251;24134;-79
2023/01/07 09:43:20;;;;;;;13.68;5.82;;;4.50;99.90;4.20;100559;;;;559408;251;35298;-85
2023/01/07 09:45:53;;;;;;;5.83;4.60;;;4.70;99.90;4.30;100552;;;;573230;250;24081;-81
2023/01/07 09:48:33;;;;;;;7.17;3.90;;;4.90;99.90;4.40;100554;;;;572247;247;24075;-84
2023/01/07 09:51:06;;;;;;;10.77;3.90;;;5.00;99.90;4.50;100554;;;;564021;251;24177;-80
2023/01/07 09:53:37;;;;;;;10.53;3.73;;;5.10;99.90;4.60;100559;;;;573002;246;24059;-81
2023/01/07 09:56:10;;;;;;;7.03;4.10;;;5.20;99.90;4.60;100559;;;;563139;251;24097;-81
2023/01/07 09:58:38;;;;;;;13.03;4.43;;;5.30;99.90;4.60;100568;;;;570789;250;24152;-78
2023/01/07 10:01:39;;;;;;;12.50;4.93;;;5.30;99.90;4.70;100563;;;;570405;251;24150;-81
2023/01/07 10:04:22;;;;;;;8.37;4.03;;;5.40;99.90;4.70;100563;;;;566227;250;24127;-83
2023/01/07 10:07:20;;;;;;;10.93;4.23;;;5.40;99.90;4.90;100565;;;;564421;250;24095;-82
2023/01/07 10:10:18;;;;;;;8.27;3.23;;;5.70;99.90;5.10;100569;;;;562511;252;25179;-81
2023/01/07 10:13:25;;;;;;;11.67;3.57;;;5.70;99.90;5.30;100570;;;;565337;250;24160;-80
2023/01/07 10:15:59;;;;;;;9.20;3.93;;;5.90;99.90;5.50;100558;;;;565252;250;24117;-77
2023/01/07 10:18:42;;;;;;;5.40;3.47;;;6.10;99.90;5.60;100557;;;;580718;247;24076;-78
2023/01/07 10:21:22;;;;;;;11.93;4.77;;;6.40;99.90;5.70;100559;;;;564320;250;24100;-77
2023/01/07 10:23:53;;;;;;;7.03;4.17;;;6.40;99.90;5.80;100554;;;;572437;247;24069;-78
2023/01/07 10:26:20;;;;;;;12.50;5.97;;;6.50;99.90;5.80;100546;;;;561099;250;35264;-78
2023/01/07 10:28:48;;;;;;;12.23;5.13;;;6.60;99.90;5.80;100551;;;;559509;249;24178;-78
2023/01/07 10:31:19;;;;;;;8.37;4.50;;;6.60;99.90;5.80;100544;;;;564297;251;24107;-79
2023/01/07 10:33:47;;;;;;;10.97;4.97;;;6.60;99.90;5.90;100546;;;;565622;251;24094;-78
2023/01/07 10:36:27;;;;;;;10.37;4.60;;;6.60;99.90;5.90;100542;;;;566645;251;24104;-79
2023/01/07 10:39:18;;;;;;;10.90;4.80;;;6.60;99.90;5.90;100538;;;;564600;251;24089;-79
2023/01/07 10:42:04;;;;;;;10.10;4.83;;;6.60;99.90;5.80;100540;;;;563335;251;24176;-82
2023/01/07 10:44:50;;;;;;;11.63;4.20;;;6.60;99.90;5.80;100524;;;;560840;251;24107;-81
2023/01/07 10:47:35;;;;;;;9.50;3.90;;;6.60;99.90;5.80;100518;;;;565492;250;24173;-82
2023/01/07 10:50:45;;;;;;;11.23;4.30;;;6.60;99.90;5.90;100512;;;;569580;252;24083;-79
2023/01/07 10:53:52;;;;;;;9.50;4.73;;;6.60;99.90;5.90;100518;;;;573648;250;24140;-81
2023/01/07 10:56:32;;;;;;;5.10;4.17;;;6.60;99.90;5.80;100516;;;;563823;250;24121;-78
2023/01/07 10:59:00;;;;;;;7.53;3.97;;;6.50;99.90;5.60;100526;;;;572605;247;24069;-79
2023/01/07 11:01:37;;;;;;;6.57;4.27;;;6.40;99.90;5.50;100510;;;;564175;251;24254;-79
2023/01/07 11:04:13;;;;;;;9.63;4.67;;;6.10;99.90;5.30;100516;;;;564278;251;24168;-78
2023/01/07 11:06:48;;;;;;;11.07;4.90;;;5.90;99.90;5.20;100509;;;;568776;249;24169;-79
2023/01/07 11:09:28;;;;;;;12.43;6.90;;;5.90;99.90;5.10;100514;;;;555636;252;35302;-79
2023/01/07 11:11:59;;;;;;;12.93;6.13;;;5.80;99.90;5.00;100516;;;;570624;251;24103;-77
2023/01/07 11:14:24;;;;;;;7.40;4.73;;;5.60;99.90;4.90;100505;;;;564663;250;24136;-77
2023/01/07 11:16:52;;;;;;;8.90;5.20;;;5.60;99.90;4.80;100503;;;;565056;251;24095;-78
2023/01/07 11:19:21;;;;;;;13.50;5.53;;;5.50;99.90;4.80;100500;;;;562195;251;25172;-79
2023/01/07 11:21:52;;;;;;;13.30;4.43;;;5.50;99.90;4.70;100496;;;;564847;251;24088;-79
2023/01/07 11:24:34;;;;;;;5.33;4.03;;;5.40;99.90;4.70;100499;;;;558555;251;24103;-79
2023/01/07 11:27:13;;;;;;;5.13;4.60;;;5.40;99.90;4.70;100493;;;;567157;251;24111;-80
2023/01/07 11:29:44;;;;;;;10.57;5.30;;;5.30;99.90;4.70;100481;;;;574887;247;24083;-79
2023/01/07 11:32:27;;;;;;;14.05;8.15;;;5.40;99.90;4.80;100486;;;;558476;251;35348;-79
2023/01/07 11:35:00;;;;;;;11.00;6.53;;;5.40;99.90;4.80;100483;;;;567151;252;24125;-78
2023/01/07 11:37:37;;;;;;;10.63;6.50;;;5.60;99.90;4.90;100480;;;;561584;250;25137;-78
2023/01/07 11:40:14;;;;;;;12.47;6.13;;;5.60;99.90;5.00;100486;;;;561440;252;24095;-77
2023/01/07 11:42:47;;;;;;;9.00;5.90;;;5.70;99.90;5.10;100480;;;;565233;251;24075;-77